METAR Data
IDs: Format: Raw Decoded Include TAF

Data at: 0047 UTC 20 Jul 2019

METAR for:KMPZ (Mount Pleasant Muni, IA, US)
Text:KMPZ 200035Z AUTO 19014G17KT 10SM CLR 32/26 A2977 RMK AO2
Temperature: 32.0°C ( 90°F)
Dewpoint: 26.0°C ( 79°F) [RH = 71%]
Pressure (altimeter):29.77 inches Hg (1008.2 mb)
Winds:from the S (190 degrees) at 16 MPH (14 knots; 7.2 m/s) gusting to 20 MPH (17 knots; 8.7 m/s)
Visibility:10 or more sm (16+ km)
Ceiling:at least 12,000 feet AGL
Clouds:sky clear below 12,000 feet AGL
QC Flag:automated observation with no human augmentation